Time;durP1;ratioP1;P1;durP2;ratioP2;P2;SDS_P1;SDS_P2;PMS_P1;PMS_P2;Temp;Humidity;BMP_temperature;BMP_pressure;BME280_temperature;BME280_humidity;BME280_pressure;Samples;Min_cycle;Max_cycle;Signal;HPM_P1;HPM_P2
2022/01/25 00:08:38;;;;;;;62.90;29.40;;;;;;;-11.38;100.00;99045.69;5017988;28;20413;-86
2022/01/25 00:32:16;;;;;;;58.13;23.85;;;;;;;-11.30;100.00;99040.06;5018396;28;20459;-86
2022/01/25 00:34:42;;;;;;;56.15;26.13;;;;;;;-11.54;98.57;99012.22;5018478;28;20029;-86
2022/01/25 00:37:08;;;;;;;59.55;23.05;;;;;;;-11.45;98.76;99047.09;5014065;28;20026;-86
2022/01/25 00:39:37;;;;;;;53.20;20.92;;;;;;;-11.57;98.21;99049.09;5000935;28;20037;-86
2022/01/25 00:42:04;;;;;;;52.75;20.27;;;;;;;-11.79;96.91;99025.69;5003323;28;20517;-85
2022/01/25 00:44:35;;;;;;;50.15;19.20;;;;;;;-11.82;95.39;99036.75;4995048;28;20022;-85
2022/01/25 00:47:01;;;;;;;41.78;17.63;;;;;;;-11.92;96.22;99055.16;5001152;28;20084;-87
2022/01/25 00:49:29;;;;;;;36.67;15.57;;;;;;;-12.03;94.83;99045.13;4996355;28;20105;-87
2022/01/25 00:54:32;;;;;;;43.70;18.63;;;;;;;-12.31;95.62;99037.69;5017916;28;20021;-86
2022/01/25 00:56:58;;;;;;;41.65;17.48;;;;;;;-12.34;98.17;99045.28;5015888;28;20021;-86
2022/01/25 00:59:26;;;;;;;42.42;18.85;;;;;;;-12.29;100.00;99048.97;5015749;28;20026;-87
2022/01/25 01:02:04;;;;;;;53.08;21.45;;;;;;;-12.15;100.00;99050.56;5000318;28;20032;-87
2022/01/25 01:04:31;;;;;;;54.92;21.45;;;;;;;-12.34;100.00;99025.56;5001051;28;20041;-87
2022/01/25 01:06:57;;;;;;;49.00;21.27;;;;;;;-12.07;100.00;99044.06;4992816;28;20030;-87
2022/01/25 01:09:23;;;;;;;62.08;22.17;;;;;;;-12.09;100.00;99035.41;5015540;28;20026;-86
2022/01/25 01:33:53;;;;;;;44.63;18.60;;;;;;;-12.01;100.00;99023.75;5016789;28;20029;-86
2022/01/25 01:42:16;;;;;;;53.63;20.65;;;;;;;-12.22;100.00;98991.78;5016229;28;20026;-87
2022/01/25 01:44:19;;;;;;;45.65;17.13;;;;;;;-12.14;100.00;99000.75;5007832;28;20045;-86
2022/01/25 01:46:59;;;;;;;47.88;19.00;;;;;;;-12.12;100.00;98994.84;5016095;28;20029;-86
2022/01/25 01:49:27;;;;;;;57.58;25.27;;;;;;;-12.37;100.00;98991.00;5018035;28;20029;-88
2022/01/25 01:51:53;;;;;;;53.55;20.35;;;;;;;-12.34;100.00;99004.94;4993480;28;20089;-87
2022/01/25 01:54:18;;;;;;;52.90;20.70;;;;;;;-12.49;100.00;98980.09;5001961;28;20026;-87
2022/01/25 01:56:44;;;;;;;51.30;20.55;;;;;;;-12.33;100.00;99011.84;4999426;28;20034;-86
2022/01/25 01:59:12;;;;;;;61.92;25.42;;;;;;;-12.56;100.00;98994.34;4998454;28;20030;-87
2022/01/25 02:01:40;;;;;;;58.47;23.20;;;;;;;-12.63;100.00;99005.13;4999459;28;20028;-86
2022/01/25 02:04:08;;;;;;;66.82;23.23;;;;;;;-12.62;100.00;98988.00;5005003;28;20034;-86
2022/01/25 02:06:34;;;;;;;54.53;23.77;;;;;;;-12.49;100.00;99001.59;4998504;28;20055;-86
2022/01/25 02:08:59;;;;;;;50.25;19.45;;;;;;;-12.49;100.00;99003.28;5008395;28;20056;-85
2022/01/25 02:11:25;;;;;;;58.22;22.42;;;;;;;-12.58;100.00;98974.47;4986750;28;20101;-86
2022/01/25 02:13:51;;;;;;;44.20;20.35;;;;;;;-12.47;100.00;98999.97;5000109;28;20495;-87
2022/01/25 02:17:05;;;;;;;57.33;23.60;;;;;;;-12.39;100.00;98982.28;4998549;28;20489;-86
2022/01/25 02:24:39;;;;;;;47.83;18.17;;;;;;;-12.50;99.22;98948.28;5009778;28;20091;-87
2022/01/25 02:27:05;;;;;;;48.90;21.17;;;;;;;-12.39;98.91;98967.72;4989459;28;20026;-87
2022/01/25 02:29:31;;;;;;;62.85;21.88;;;;;;;-12.42;99.01;98974.41;4996163;28;20026;-87
2022/01/25 02:31:57;;;;;;;51.38;21.23;;;;;;;-12.38;99.68;98984.06;5014406;28;20025;-85
2022/01/25 02:34:24;;;;;;;74.60;27.10;;;;;;;-12.45;100.00;98966.53;4985825;28;20041;-85
2022/01/25 02:37:00;;;;;;;43.40;20.35;;;;;;;-12.44;100.00;98968.31;4998445;28;20034;-87
2022/01/25 02:39:26;;;;;;;59.30;22.75;;;;;;;-12.38;99.51;98968.63;5032365;28;20040;-86
2022/01/25 02:41:52;;;;;;;34.97;16.55;;;;;;;-12.42;96.49;98971.84;5014441;28;20030;-85
2022/01/25 02:44:24;;;;;;;56.72;19.27;;;;;;;-12.48;94.09;98966.38;5015129;28;20505;-86
2022/01/25 02:49:33;;;;;;;37.67;14.57;;;;;;;-12.80;94.56;98963.09;5015530;28;19924;-86
2022/01/25 02:52:02;;;;;;;29.63;16.30;;;;;;;-12.87;94.18;98957.53;4988095;28;20054;-85
2022/01/25 02:54:28;;;;;;;58.17;24.15;;;;;;;-12.97;96.15;98953.59;5004300;28;20029;-86
2022/01/25 02:56:54;;;;;;;49.22;19.00;;;;;;;-13.01;97.17;98949.09;5011574;28;20423;-86
2022/01/25 02:59:20;;;;;;;64.47;20.90;;;;;;;-13.06;96.15;98934.22;5012712;28;20029;-86
2022/01/25 03:01:47;;;;;;;67.43;26.40;;;;;;;-12.96;98.60;98951.91;5014424;28;20504;-86
2022/01/25 03:04:15;;;;;;;56.95;24.45;;;;;;;-12.98;100.00;98956.97;4999423;28;20033;-86
2022/01/25 03:06:43;;;;;;;69.28;27.73;;;;;;;-12.99;100.00;98952.66;4998906;28;20100;-86
2022/01/25 03:09:08;;;;;;;73.38;29.15;;;;;;;-13.03;100.00;98934.38;5015476;28;20026;-86
2022/01/25 03:11:34;;;;;;;75.75;26.88;;;;;;;-12.94;100.00;98948.63;4998720;28;20033;-87
2022/01/25 03:14:00;;;;;;;82.47;28.75;;;;;;;-13.02;100.00;98929.31;4998021;28;20096;-87
2022/01/25 03:19:03;;;;;;;68.93;24.95;;;;;;;-12.97;98.95;98922.72;5016763;28;20036;-87
2022/01/25 03:21:36;;;;;;;52.80;23.58;;;;;;;-12.93;97.42;98919.50;4998937;28;20026;-86
2022/01/25 03:24:04;;;;;;;50.30;20.90;;;;;;;-13.03;96.22;98906.06;4995737;28;20036;-86
2022/01/25 03:26:30;;;;;;;50.33;21.67;;;;;;;-13.10;95.66;98904.03;4997797;28;20057;-87
2022/01/25 03:28:56;;;;;;;23.98;12.50;;;;;;;-13.09;95.45;98893.81;4998460;28;20026;-86
2022/01/25 03:31:22;;;;;;;31.70;13.18;;;;;;;-13.32;93.34;98873.75;5012638;28;20033;-87
2022/01/25 03:33:47;;;;;;;34.70;15.23;;;;;;;-13.33;96.79;98869.41;5014613;28;20042;-87
2022/01/25 03:36:14;;;;;;;44.90;16.13;;;;;;;-13.32;96.65;98877.19;5014630;28;20076;-87
2022/01/25 03:38:41;;;;;;;31.05;15.07;;;;;;;-13.27;97.63;98875.75;5014514;28;20037;-87
2022/01/25 03:41:12;;;;;;;36.75;15.43;;;;;;;-13.30;98.80;98878.16;5001371;28;20025;-87
2022/01/25 03:43:38;;;;;;;36.13;14.98;;;;;;;-13.41;97.12;98860.41;4999629;28;20029;-87
2022/01/25 03:46:12;;;;;;;31.05;17.50;;;;;;;-13.45;95.56;98856.81;4995527;28;20040;-87
2022/01/25 03:51:22;;;;;;;52.63;20.60;;;;;;;-13.51;97.12;98855.59;5018293;28;20044;-87
2022/01/25 03:53:47;;;;;;;41.15;19.73;;;;;;;-13.46;95.80;98867.00;5001842;28;20057;-87
2022/01/25 03:56:13;;;;;;;30.10;14.73;;;;;;;-13.58;93.25;98856.06;4991749;28;20462;-86
2022/01/25 03:58:39;;;;;;;63.60;23.65;;;;;;;-13.68;92.19;98853.81;5018794;28;20022;-87
2022/01/25 04:01:04;;;;;;;32.13;16.67;;;;;;;-13.87;93.82;98857.97;5020003;28;20069;-87
2022/01/25 04:03:36;;;;;;;36.38;14.35;;;;;;;-13.82;94.58;98860.81;4993190;28;20089;-85
2022/01/25 04:06:03;;;;;;;36.45;16.75;;;;;;;-13.76;95.37;98878.25;5005204;28;20104;-87
2022/01/25 04:08:29;;;;;;;39.95;15.82;;;;;;;-13.86;96.58;98852.06;5017594;28;20033;-86
2022/01/25 04:10:55;;;;;;;18.70;13.15;;;;;;;-14.00;94.37;98868.44;5018273;28;20029;-86
2022/01/25 04:13:20;;;;;;;38.83;17.98;;;;;;;-13.91;95.13;98870.59;4996622;28;20030;-84
2022/01/25 04:15:47;;;;;;;46.42;18.23;;;;;;;-13.92;96.08;98859.44;4989950;28;20383;-85
2022/01/25 04:18:24;;;;;;;36.35;17.10;;;;;;;-13.81;96.92;98875.44;5015135;28;20025;-85
2022/01/25 04:21:23;;;;;;;21.48;13.95;;;;;;;-13.92;98.46;98850.84;5016417;28;20030;-86
2022/01/25 04:26:22;;;;;;;33.05;17.45;;;;;;;-13.91;99.23;98850.03;5017753;28;20080;-86
2022/01/25 04:28:48;;;;;;;45.33;20.85;;;;;;;-13.81;100.00;98863.44;5000476;28;20029;-86
2022/01/25 04:31:16;;;;;;;45.35;19.85;;;;;;;-13.82;100.00;98856.56;5001513;28;20036;-87
2022/01/25 04:33:55;;;;;;;34.35;15.18;;;;;;;-13.78;99.34;98857.63;5017538;28;20030;-86
2022/01/25 04:50:00;;;;;;;75.13;31.98;;;;;;;-14.02;100.00;98853.69;5012745;28;20049;-75
2022/01/25 04:52:31;;;;;;;94.05;37.03;;;;;;;-13.93;100.00;98857.66;5011093;28;20514;-75
2022/01/25 04:57:45;;;;;;;130.45;46.28;;;;;;;-13.80;100.00;98844.66;5012332;28;20194;-76
2022/01/25 05:00:18;;;;;;;115.13;41.40;;;;;;;-13.71;100.00;98854.53;4998719;28;20033;-75
2022/01/25 05:05:21;;;;;;;85.60;33.60;;;;;;;-13.54;100.00;98845.16;5012018;28;20026;-74
2022/01/25 05:10:47;;;;;;;104.45;38.00;;;;;;;-13.54;95.49;98837.44;4994606;28;20034;-74
2022/01/25 05:13:30;;;;;;;70.03;27.60;;;;;;;-13.45;95.92;98848.19;4996772;28;20047;-74
2022/01/25 05:16:06;;;;;;;84.45;28.08;;;;;;;-13.49;95.82;98846.25;5013216;28;20036;-74
2022/01/25 05:18:45;;;;;;;52.28;22.70;;;;;;;-13.42;94.84;98844.09;4996492;28;20382;-74
2022/01/25 05:23:55;;;;;;;43.08;18.70;;;;;;;-13.53;94.45;98829.78;5011803;28;20054;-76
2022/01/25 05:26:21;;;;;;;61.97;20.02;;;;;;;-13.53;93.40;98836.66;4995226;28;20030;-73
2022/01/25 05:28:46;;;;;;;46.40;22.02;;;;;;;-13.81;92.96;98832.59;5009600;28;20030;-74
2022/01/25 05:31:12;;;;;;;41.15;19.25;;;;;;;-13.94;92.83;98831.91;5008892;28;20112;-74
2022/01/25 05:33:37;;;;;;;40.17;18.23;;;;;;;-14.00;92.70;98831.56;5027551;28;20061;-73
2022/01/25 05:36:03;;;;;;;42.72;20.38;;;;;;;-14.23;93.14;98835.47;5012595;28;20067;-73
2022/01/25 05:38:29;;;;;;;55.10;19.38;;;;;;;-14.25;94.74;98825.91;5012413;28;20022;-73
2022/01/25 05:41:00;;;;;;;52.63;19.38;;;;;;;-14.23;94.25;98825.19;5012348;28;20038;-74
2022/01/25 05:46:15;;;;;;;40.03;19.40;;;;;;;-14.27;94.72;98836.06;5011227;28;20128;-74
2022/01/25 05:48:41;;;;;;;41.88;16.63;;;;;;;-14.09;94.05;98834.53;5011073;28;20030;-74
2022/01/25 05:51:07;;;;;;;72.28;28.13;;;;;;;-14.06;95.21;98829.56;5010865;28;20025;-74
2022/01/25 05:53:33;;;;;;;49.55;24.02;;;;;;;-13.87;96.66;98841.72;5010952;28;20084;-74
2022/01/25 05:55:59;;;;;;;52.05;22.80;;;;;;;-13.84;94.37;98831.59;5010819;28;20124;-74
2022/01/25 05:58:25;;;;;;;40.40;18.92;;;;;;;-13.92;95.51;98831.16;5010400;28;20109;-74
2022/01/25 06:00:51;;;;;;;85.18;32.38;;;;;;;-13.79;95.25;98840.41;5010602;28;20033;-75
2022/01/25 06:03:17;;;;;;;66.95;28.08;;;;;;;-13.78;98.35;98823.31;5010655;28;20025;-74
2022/01/25 06:05:43;;;;;;;75.45;27.20;;;;;;;-13.64;97.06;98824.91;5010467;28;20033;-73
2022/01/25 06:08:09;;;;;;;107.70;41.75;;;;;;;-13.45;96.89;98835.34;5027332;28;20042;-74
2022/01/25 06:10:34;;;;;;;102.32;41.47;;;;;;;-13.48;97.26;98822.31;5026772;28;20025;-73
2022/01/25 06:13:00;;;;;;;86.95;37.05;;;;;;;-13.42;97.77;98831.25;5010364;28;20100;-74
2022/01/25 06:15:26;;;;;;;81.65;32.85;;;;;;;-13.28;99.48;98826.78;5010184;28;20458;-75
2022/01/25 06:17:52;;;;;;;71.72;24.55;;;;;;;-13.19;100.00;98829.81;5009908;28;20037;-74
2022/01/25 06:20:18;;;;;;;95.75;33.40;;;;;;;-13.06;95.27;98828.72;5008295;28;20037;-74
2022/01/25 06:22:43;;;;;;;106.95;41.40;;;;;;;-13.00;92.77;98827.31;5009150;28;20489;-74
2022/01/25 06:25:10;;;;;;;90.05;32.70;;;;;;;-13.09;91.66;98793.44;4992535;28;20405;-74
2022/01/25 06:27:40;;;;;;;51.95;23.00;;;;;;;-12.86;90.31;98822.88;5009498;28;20037;-74
2022/01/25 06:30:17;;;;;;;79.80;31.40;;;;;;;-12.81;89.26;98822.28;5009764;28;20025;-74
2022/01/25 06:32:44;;;;;;;92.20;36.70;;;;;;;-13.01;90.99;98817.81;5000805;28;20037;-75
2022/01/25 06:35:13;;;;;;;57.95;20.95;;;;;;;-12.73;89.50;98820.94;4993028;28;20037;-74
2022/01/25 06:37:40;;;;;;;74.28;31.55;;;;;;;-12.82;88.78;98807.63;4991502;28;20029;-81
2022/01/25 06:40:07;;;;;;;99.15;36.05;;;;;;;-12.97;89.95;98817.19;5009365;28;20032;-78
2022/01/25 06:42:32;;;;;;;99.53;37.88;;;;;;;-12.98;90.69;98810.25;5009844;28;20056;-77
2022/01/25 06:45:02;;;;;;;122.80;48.03;;;;;;;-13.28;91.28;98776.22;5009390;28;20029;-77
2022/01/25 06:47:29;;;;;;;175.75;68.60;;;;;;;-13.19;92.02;98798.94;5009759;28;20029;-78
2022/01/25 06:49:56;;;;;;;142.18;58.25;;;;;;;-13.16;93.69;98808.53;5025972;28;20109;-74
2022/01/25 06:52:21;;;;;;;119.53;43.08;;;;;;;-13.18;93.78;98815.25;4992757;28;20390;-73
2022/01/25 06:54:47;;;;;;;127.72;51.15;;;;;;;-13.11;93.66;98805.38;4992556;28;20037;-73
2022/01/25 06:57:12;;;;;;;139.52;51.95;;;;;;;-13.01;93.37;98792.09;5010404;28;20017;-73
2022/01/25 06:59:38;;;;;;;118.82;40.22;;;;;;;-12.51;94.67;98788.50;5009075;28;20406;-76
2022/01/25 07:02:04;;;;;;;150.88;57.13;;;;;;;-11.22;90.14;98792.59;5009301;28;20026;-74
2022/01/25 07:04:30;;;;;;;151.60;58.47;;;;;;;-9.78;80.73;98783.69;4993083;28;20032;-72
2022/01/25 07:06:55;;;;;;;195.07;76.78;;;;;;;-8.85;74.17;98769.72;4993252;28;20022;-73
2022/01/25 07:09:21;;;;;;;183.05;69.45;;;;;;;-7.77;68.14;98760.97;5010278;28;20018;-75
2022/01/25 07:11:46;;;;;;;213.98;74.53;;;;;;;-6.83;63.11;98738.44;5009100;28;20029;-74
2022/01/25 07:14:12;;;;;;;264.15;94.57;;;;;;;-6.47;59.82;98735.84;5008655;28;20490;-79
2022/01/25 07:16:38;;;;;;;185.13;69.20;;;;;;;-6.54;59.40;98735.66;4992909;28;20504;-74
2022/01/25 07:19:04;;;;;;;203.70;72.63;;;;;;;-5.67;56.71;98726.31;5009063;28;20105;-74
2022/01/25 07:21:29;;;;;;;206.07;71.10;;;;;;;-4.96;53.78;98712.03;4989640;28;20118;-77
2022/01/25 07:23:55;;;;;;;203.10;76.60;;;;;;;-4.20;51.85;98711.53;4985562;28;20061;-76
2022/01/25 07:26:21;;;;;;;214.65;82.85;;;;;;;-4.02;51.52;98706.56;5008567;28;20038;-73
2022/01/25 07:28:46;;;;;;;235.95;88.45;;;;;;;-3.35;49.40;98697.81;4988748;28;20495;-79
2022/01/25 07:31:12;;;;;;;219.55;88.35;;;;;;;-3.13;48.58;98693.69;5009291;28;20482;-80
2022/01/25 07:33:38;;;;;;;215.25;80.05;;;;;;;-2.74;46.29;98688.81;4992954;28;20029;-77
2022/01/25 07:36:05;;;;;;;230.70;87.07;;;;;;;-2.18;45.21;98685.75;5009083;28;20493;-79
2022/01/25 07:38:31;;;;;;;211.60;84.30;;;;;;;-2.45;46.17;98672.47;5009052;28;20072;-74
2022/01/25 07:40:57;;;;;;;226.70;91.97;;;;;;;-2.34;45.90;98673.44;5008863;28;20216;-74
2022/01/25 07:43:22;;;;;;;262.95;107.60;;;;;;;-2.84;47.35;98687.00;5010224;28;20126;-74
2022/01/25 07:46:04;;;;;;;290.73;119.35;;;;;;;-3.33;49.48;98676.94;5009551;28;20101;-77
2022/01/25 07:48:30;;;;;;;229.95;89.45;;;;;;;-2.52;47.61;98694.25;4991682;28;20588;-76
2022/01/25 07:50:56;;;;;;;216.85;84.43;;;;;;;-2.57;48.06;98685.47;5009521;28;20118;-78
2022/01/25 07:53:22;;;;;;;232.23;94.18;;;;;;;-2.68;47.19;98681.91;5008920;28;20465;-75
2022/01/25 07:55:47;;;;;;;206.63;83.22;;;;;;;-2.74;47.93;98688.81;5009106;28;20018;-76
2022/01/25 07:58:13;;;;;;;223.32;88.30;;;;;;;-2.46;47.71;98699.56;5009156;28;20032;-77
2022/01/25 08:00:39;;;;;;;238.63;94.40;;;;;;;-4.12;49.86;98711.66;4992847;28;20108;-76
2022/01/25 08:03:05;;;;;;;235.90;95.72;;;;;;;-4.56;53.11;98726.63;5008939;28;20026;-76
2022/01/25 08:05:30;;;;;;;202.77;84.07;;;;;;;-2.62;50.41;98711.63;5009059;28;20065;-76
2022/01/25 08:07:58;;;;;;;231.70;90.07;;;;;;;-1.17;46.43;98693.22;5010571;28;20117;-77
2022/01/25 08:10:24;;;;;;;234.85;91.90;;;;;;;-1.07;44.94;98673.97;5008941;28;20489;-76
2022/01/25 08:12:49;;;;;;;215.15;92.63;;;;;;;-0.86;44.12;98673.16;5005746;28;20034;-76
2022/01/25 08:15:16;;;;;;;219.38;92.55;;;;;;;-0.63;44.96;98680.19;4980224;28;20089;-77
2022/01/25 08:17:42;;;;;;;225.90;97.72;;;;;;;-0.62;43.88;98671.44;5009290;28;20069;-77
2022/01/25 08:20:08;;;;;;;232.75;93.35;;;;;;;-1.31;44.88;98671.31;4992786;28;20050;-77
2022/01/25 08:22:34;;;;;;;201.10;82.50;;;;;;;-2.06;48.55;98696.31;4992279;28;20435;-76
2022/01/25 08:25:00;;;;;;;178.70;73.32;;;;;;;-1.54;46.47;98686.09;4992505;28;20091;-77
2022/01/25 08:27:25;;;;;;;186.35;76.60;;;;;;;-1.83;47.85;98689.47;5010418;28;20034;-77
2022/01/25 08:29:52;;;;;;;194.35;75.10;;;;;;;-0.75;47.28;98682.78;5012591;28;20025;-77
2022/01/25 08:32:18;;;;;;;175.73;75.03;;;;;;;0.15;44.49;98675.72;5009481;28;20410;-77
2022/01/25 08:34:44;;;;;;;165.95;69.93;;;;;;;0.65;43.81;98672.00;5012098;28;20029;-76
2022/01/25 08:37:10;;;;;;;186.60;76.13;;;;;;;0.83;43.84;98662.22;5012076;28;20037;-77
2022/01/25 08:39:35;;;;;;;201.07;69.05;;;;;;;-1.23;46.59;98677.47;4995317;28;20041;-77
2022/01/25 08:42:01;;;;;;;155.02;59.35;;;;;;;-1.52;48.65;98674.75;5012027;28;20549;-76
2022/01/25 08:44:27;;;;;;;144.20;61.03;;;;;;;-2.13;49.60;98678.81;5011827;28;20045;-76
2022/01/25 08:46:52;;;;;;;152.07;60.08;;;;;;;-1.11;47.63;98665.22;4995508;28;20075;-76
2022/01/25 08:49:20;;;;;;;158.05;63.90;;;;;;;0.23;45.62;98659.88;4995415;28;20477;-74
2022/01/25 08:51:48;;;;;;;139.00;57.70;;;;;;;-0.29;46.06;98656.50;5011705;28;20042;-75
2022/01/25 08:54:14;;;;;;;143.02;58.75;;;;;;;0.31;45.55;98652.81;4995723;28;20022;-76
2022/01/25 08:56:41;;;;;;;124.75;50.83;;;;;;;0.09;46.42;98657.31;4995178;28;20036;-75
2022/01/25 08:59:07;;;;;;;102.93;47.28;;;;;;;-0.48;48.01;98662.66;5011860;28;20022;-75
2022/01/25 09:01:33;;;;;;;159.32;63.53;;;;;;;-0.23;48.13;98669.63;5011530;28;20034;-76
2022/01/25 09:04:00;;;;;;;138.25;54.38;;;;;;;-1.32;47.84;98659.94;5011604;28;20477;-76
2022/01/25 09:06:27;;;;;;;128.27;49.38;;;;;;;-0.18;47.85;98634.56;4995271;28;20030;-76
2022/01/25 09:08:53;;;;;;;108.70;45.90;;;;;;;0.10;47.92;98635.38;4994795;28;20493;-76
2022/01/25 09:11:18;;;;;;;124.28;55.88;;;;;;;0.26;47.92;98639.72;4995487;28;20410;-76
2022/01/25 09:13:44;;;;;;;123.82;54.28;;;;;;;-1.10;48.92;98652.97;5011108;28;20040;-77
2022/01/25 09:16:10;;;;;;;106.90;45.65;;;;;;;-0.09;48.81;98650.31;4994953;28;20485;-76
2022/01/25 09:18:36;;;;;;;103.60;45.45;;;;;;;-1.53;50.51;98648.50;4994788;28;20037;-76
2022/01/25 09:21:03;;;;;;;108.10;47.92;;;;;;;-1.70;51.22;98649.34;5011362;28;20053;-76
2022/01/25 09:23:28;;;;;;;111.47;44.90;;;;;;;-1.14;51.74;98652.09;4994793;28;20029;-77
2022/01/25 09:25:58;;;;;;;99.28;44.40;;;;;;;-0.84;50.50;98645.16;5011141;28;20022;-77
2022/01/25 09:28:24;;;;;;;124.20;44.00;;;;;;;-0.51;50.95;98641.63;4994699;28;20052;-77
2022/01/25 09:30:49;;;;;;;98.38;40.10;;;;;;;-0.86;50.50;98653.00;5011190;28;20033;-76
2022/01/25 09:33:15;;;;;;;75.47;34.22;;;;;;;-1.11;52.53;98656.50;5011281;28;20362;-76
2022/01/25 09:35:41;;;;;;;78.75;33.42;;;;;;;-0.17;49.50;98631.06;4994233;28;20026;-77
2022/01/25 09:38:07;;;;;;;76.80;33.75;;;;;;;0.42;48.04;98630.00;4993936;28;20037;-77
2022/01/25 09:40:32;;;;;;;76.38;32.90;;;;;;;0.99;48.14;98621.75;4997589;28;20335;-76
2022/01/25 09:42:58;;;;;;;87.03;31.88;;;;;;;1.45;44.84;98616.13;5010815;28;20040;-76
2022/01/25 09:45:25;;;;;;;70.38;30.05;;;;;;;2.09;46.52;98611.94;5010597;28;20030;-76
2022/01/25 09:48:10;;;;;;;69.43;29.42;;;;;;;2.13;44.56;98607.50;5010515;28;20040;-76
2022/01/25 09:50:38;;;;;;;50.00;21.55;;;;;;;2.24;43.18;98587.16;4994028;28;20030;-77
2022/01/25 09:53:04;;;;;;;54.28;27.40;;;;;;;1.04;44.61;98582.22;4993967;28;20064;-75
2022/01/25 09:55:33;;;;;;;60.58;26.20;;;;;;;1.37;46.73;98597.75;5010701;28;20041;-75
2022/01/25 09:57:58;;;;;;;62.55;28.38;;;;;;;3.36;43.66;98576.69;5010551;28;20413;-76
2022/01/25 10:00:28;;;;;;;58.17;28.05;;;;;;;2.99;41.31;98571.13;5010595;28;20104;-76
2022/01/25 10:05:33;;;;;;;76.07;35.20;;;;;;;3.31;40.67;98544.19;5010545;28;20040;-77
2022/01/25 10:08:09;;;;;;;73.18;35.28;;;;;;;3.47;40.74;98550.94;5010149;28;20076;-76
2022/01/25 10:10:42;;;;;;;79.03;38.28;;;;;;;4.87;40.10;98541.84;5027122;28;20057;-77
2022/01/25 10:13:09;;;;;;;;;;;;;;;4.52;40.26;98555.91;4994583;28;20485;-76
2022/01/25 10:15:35;;;;;;;95.10;44.88;;;;;;;4.87;39.10;98541.84;5009279;28;20028;-76
2022/01/25 10:18:01;;;;;;;98.88;48.67;;;;;;;4.95;37.85;98518.69;4993791;28;20437;-77
2022/01/25 10:20:45;;;;;;;78.50;39.10;;;;;;;1.72;44.53;98546.44;4993769;28;20032;-75
2022/01/25 10:23:12;;;;;;;110.60;48.75;;;;;;;3.92;41.98;98541.28;4994978;28;20113;-77
2022/01/25 10:25:48;;;;;;;62.92;29.77;;;;;;;5.06;39.31;98526.38;5009074;28;20034;-76
2022/01/25 10:28:15;;;;;;;63.95;31.77;;;;;;;4.39;38.87;98501.44;5010267;28;20030;-77
2022/01/25 10:30:54;;;;;;;70.80;31.63;;;;;;;4.10;40.33;98525.91;5009939;28;20144;-76
2022/01/25 10:33:31;;;;;;;67.95;32.22;;;;;;;3.14;41.21;98518.00;5010269;28;20045;-76
2022/01/25 10:36:01;;;;;;;86.57;39.55;;;;;;;3.98;41.98;98523.50;5011406;28;20083;-76
2022/01/25 10:38:32;;;;;;;56.50;29.27;;;;;;;5.42;39.21;98505.09;5009846;28;20017;-77
2022/01/25 10:41:14;;;;;;;55.95;25.63;;;;;;;5.89;37.31;98502.97;4993413;28;20028;-76
2022/01/25 10:43:42;;;;;;;50.45;26.08;;;;;;;5.86;37.22;98495.09;4993603;28;20061;-76
2022/01/25 10:46:17;;;;;;;65.38;32.75;;;;;;;6.19;37.64;98490.59;4993461;28;20405;-76
2022/01/25 10:49:13;;;;;;;100.53;48.33;;;;;;;6.12;38.56;98502.34;4993340;28;20115;-76
2022/01/25 10:51:47;;;;;;;112.80;56.05;;;;;;;5.78;39.07;98487.31;4986415;28;20049;-76
2022/01/25 10:54:24;;;;;;;105.65;53.60;;;;;;;6.80;37.71;98486.97;4993349;28;20097;-76
2022/01/25 10:56:58;;;;;;;116.22;55.47;;;;;;;7.33;36.23;98471.88;4993293;28;20378;-76
2022/01/25 10:59:29;;;;;;;118.38;53.20;;;;;;;5.90;37.54;98468.44;5009889;28;20022;-76
2022/01/25 11:02:02;;;;;;;79.93;38.10;;;;;;;6.82;37.77;98459.41;4993298;28;20037;-75
2022/01/25 11:04:31;;;;;;;109.60;50.10;;;;;;;7.46;35.91;98446.56;5009609;28;20025;-76
2022/01/25 11:07:01;;;;;;;107.47;55.58;;;;;;;7.60;36.58;98449.59;5009647;28;20038;-75
2022/01/25 11:09:35;;;;;;;99.43;48.78;;;;;;;6.62;37.94;98451.16;5025932;28;20026;-76
2022/01/25 11:12:03;;;;;;;110.15;52.45;;;;;;;4.85;39.89;98464.16;4993660;28;20025;-75
2022/01/25 11:17:13;;;;;;;150.75;58.38;;;;;;;6.37;40.04;98451.06;5009524;28;20033;-76
2022/01/25 11:19:39;;;;;;;121.35;55.75;;;;;;;6.31;39.12;98445.06;5009012;28;20021;-75
2022/01/25 11:22:04;;;;;;;122.25;58.63;;;;;;;6.14;38.91;98423.47;5009076;28;20447;-76
2022/01/25 11:24:32;;;;;;;122.07;56.00;;;;;;;6.90;36.77;98437.84;4991769;28;20038;-77
2022/01/25 11:27:02;;;;;;;78.85;38.10;;;;;;;6.84;36.61;98427.41;4992789;28;20021;-77
2022/01/25 11:29:28;;;;;;;57.22;30.15;;;;;;;6.50;38.34;98443.59;4993907;28;20049;-77
2022/01/25 11:32:00;;;;;;;56.38;29.45;;;;;;;5.40;39.98;98445.03;4988647;28;20081;-88
2022/01/25 11:34:27;;;;;;;73.65;35.53;;;;;;;6.27;38.40;98430.16;5011431;28;20021;-85
2022/01/25 11:37:02;;;;;;;83.28;40.15;;;;;;;6.94;36.80;98423.53;4991757;28;20414;-87
2022/01/25 11:39:29;;;;;;;89.72;43.30;;;;;;;7.22;37.66;98421.69;4978967;28;20422;-76
2022/01/25 11:42:08;;;;;;;81.32;40.85;;;;;;;7.80;36.42;98416.94;5009067;28;20029;-75
2022/01/25 11:44:34;;;;;;;76.18;38.47;;;;;;;8.71;34.37;98406.28;5005191;28;20026;-79
2022/01/25 11:47:13;;;;;;;61.05;32.15;;;;;;;8.62;34.34;98395.97;4992038;28;20030;-75
2022/01/25 11:49:56;;;;;;;81.10;41.58;;;;;;;6.83;35.91;98385.81;5007130;28;20408;-74
2022/01/25 11:52:24;;;;;;;101.90;48.85;;;;;;;5.56;40.32;98430.44;4995764;28;20492;-75
2022/01/25 11:55:22;;;;;;;104.07;53.25;;;;;;;7.29;36.50;98401.06;5006160;28;20103;-75
2022/01/25 11:57:57;;;;;;;108.80;53.50;;;;;;;8.23;35.07;98397.53;4983957;28;20096;-74
2022/01/25 12:00:42;;;;;;;109.05;53.65;;;;;;;5.66;37.84;98410.69;5009419;28;20124;-74
2022/01/25 12:03:27;;;;;;;102.32;48.42;;;;;;;4.49;39.99;98415.56;5011872;28;20025;-75
2022/01/25 12:05:53;;;;;;;99.90;48.33;;;;;;;6.27;38.43;98406.25;5011534;28;20034;-75
2022/01/25 12:08:27;;;;;;;76.38;38.63;;;;;;;5.71;37.61;98394.63;5013252;28;20441;-75
2022/01/25 12:10:58;;;;;;;75.35;36.13;;;;;;;3.29;40.47;98399.66;5013567;28;20064;-74
2022/01/25 12:13:31;;;;;;;79.22;38.30;;;;;;;3.31;40.83;98412.00;5011138;28;20017;-74
2022/01/25 12:16:29;;;;;;;80.53;38.35;;;;;;;3.77;41.97;98412.81;5011716;28;20501;-74
2022/01/25 12:19:01;;;;;;;83.95;36.53;;;;;;;3.34;41.24;98409.28;5011648;28;20500;-75
2022/01/25 12:21:45;;;;;;;74.88;33.55;;;;;;;4.51;39.88;98402.28;4995588;28;20080;-75
2022/01/25 12:24:23;;;;;;;74.43;33.88;;;;;;;2.74;41.77;98404.22;5013162;28;20104;-75
2022/01/25 12:27:39;;;;;;;77.57;34.55;;;;;;;2.84;41.88;98397.00;5012423;28;20034;-74
2022/01/25 12:30:14;;;;;;;71.03;33.42;;;;;;;3.40;42.09;98410.03;5012134;28;20092;-74
2022/01/25 12:32:59;;;;;;;72.75;35.28;;;;;;;5.45;39.24;98387.41;5012427;28;20436;-75
2022/01/25 12:35:48;;;;;;;75.43;36.15;;;;;;;6.27;37.89;98371.72;5028617;28;20125;-75
2022/01/25 12:38:44;;;;;;;90.32;42.13;;;;;;;7.41;35.52;98363.38;5028249;28;20030;-75
2022/01/25 12:41:18;;;;;;;91.65;47.60;;;;;;;6.54;36.14;98361.06;5009419;28;20064;-75
2022/01/25 12:43:45;;;;;;;90.65;43.08;;;;;;;6.97;34.62;98344.53;5023979;28;20119;-75
2022/01/25 12:46:18;;;;;;;80.70;43.80;;;;;;;7.60;33.73;98328.00;5028249;28;20038;-75
2022/01/25 12:48:52;;;;;;;75.28;39.83;;;;;;;6.11;36.10;98342.09;4995740;28;20073;-75
2022/01/25 12:51:21;;;;;;;71.85;37.38;;;;;;;6.68;34.72;98344.63;5011650;28;20030;-75
2022/01/25 12:53:48;;;;;;;74.53;38.30;;;;;;;7.45;33.32;98327.72;5012188;28;20018;-75
2022/01/25 12:56:20;;;;;;;69.45;36.22;;;;;;;6.77;31.59;98315.09;5011615;28;20026;-74
2022/01/25 12:58:48;;;;;;;63.92;30.92;;;;;;;5.62;35.03;98316.16;4995354;28;20096;-74
2022/01/25 13:01:17;;;;;;;50.08;27.42;;;;;;;7.04;32.17;98313.28;5011571;28;20124;-76
2022/01/25 13:03:45;;;;;;;51.05;22.08;;;;;;;6.75;32.23;98303.66;5011691;28;20026;-76
2022/01/25 13:06:19;;;;;;;33.33;15.20;;;;;;;6.57;32.18;98309.59;5011437;28;20084;-75
2022/01/25 13:09:17;;;;;;;30.60;15.60;;;;;;;5.95;34.44;98308.97;5011493;28;20492;-75